Time;durP1;ratioP1;P1;durP2;ratioP2;P2;SDS_P1;SDS_P2;PMS_P1;PMS_P2;Temp;Humidity;BMP_temperature;BMP_pressure;BME280_temperature;BME280_humidity;BME280_pressure;Samples;Min_cycle;Max_cycle;Signal;HPM_P1;HPM_P2
2022/06/30 00:00:18;;;;;;;6.70;6.20;;;;;;;;;;4989968;28;20264;-59
2022/06/30 00:02:45;;;;;;;8.77;6.70;;;;;;;;;;4984812;28;20206;-59
2022/06/30 00:05:12;;;;;;;7.63;6.95;;;;;;;;;;4988739;28;20276;-59
2022/06/30 00:07:42;;;;;;;6.57;6.03;;;;;;;;;;4989945;28;20213;-59
2022/06/30 00:10:11;;;;;;;7.65;5.70;;;;;;;;;;4988853;28;20962;-59
2022/06/30 00:12:38;;;;;;;9.57;6.60;;;;;;;;;;4989351;28;20688;-59
2022/06/30 00:15:06;;;;;;;7.07;6.47;;;;;;;;;;4989721;28;20202;-59
2022/06/30 00:17:33;;;;;;;7.68;6.90;;;;;;;;;;4986701;28;20206;-59
2022/06/30 00:20:00;;;;;;;6.78;6.25;;;;;;;;;;4988308;28;20632;-59
2022/06/30 00:22:27;;;;;;;7.18;6.57;;;;;;;;;;4986141;28;20202;-59
2022/06/30 00:24:56;;;;;;;9.25;6.50;;;;;;;;;;4989403;28;20237;-59
2022/06/30 00:27:23;;;;;;;6.95;6.35;;;;;;;;;;4989664;28;20236;-59
2022/06/30 00:29:50;;;;;;;6.35;5.65;;;;;;;;;;4989999;28;20217;-59
2022/06/30 00:32:17;;;;;;;6.90;6.40;;;;;;;;;;4989864;28;20209;-59
2022/06/30 00:34:44;;;;;;;6.63;6.13;;;;;;;;;;4990006;28;20202;-59
2022/06/30 00:37:11;;;;;;;6.50;5.90;;;;;;;;;;4989578;28;20217;-59
2022/06/30 00:39:38;;;;;;;6.60;6.00;;;;;;;;;;4990224;28;20213;-58
2022/06/30 00:42:07;;;;;;;6.53;5.82;;;;;;;;;;4990059;28;20210;-59
2022/06/30 00:44:34;;;;;;;6.70;6.20;;;;;;;;;;4989414;28;20275;-59
2022/06/30 00:47:01;;;;;;;6.40;5.90;;;;;;;;;;4987004;28;20205;-60
2022/06/30 00:49:29;;;;;;;7.43;6.50;;;;;;;;;;4985287;28;20232;-59
2022/06/30 00:51:56;;;;;;;6.70;6.10;;;;;;;;;;4988191;28;20296;-59
2022/06/30 00:54:25;;;;;;;7.80;6.45;;;;;;;;;;4988769;28;20233;-59
2022/06/30 00:56:54;;;;;;;6.80;6.30;;;;;;;;;;4987664;28;20708;-59
2022/06/30 00:59:22;;;;;;;7.22;6.53;;;;;;;;;;4987959;28;20230;-59
2022/06/30 01:01:50;;;;;;;6.30;5.70;;;;;;;;;;4987809;28;20264;-59
2022/06/30 01:04:17;;;;;;;6.75;6.22;;;;;;;;;;4988970;28;20696;-59
2022/06/30 01:06:45;;;;;;;6.03;5.50;;;;;;;;;;4988928;28;20295;-59
2022/06/30 01:09:12;;;;;;;6.22;5.72;;;;;;;;;;4989021;28;20210;-59
2022/06/30 01:14:25;;;;;;;6.70;6.03;;;;;;;;;;4988021;28;20212;-60
2022/06/30 01:16:52;;;;;;;6.75;5.68;;;;;;;;;;4987951;28;20268;-59
2022/06/30 01:19:19;;;;;;;6.50;5.90;;;;;;;;;;4986482;28;20217;-59
2022/06/30 01:22:00;;;;;;;6.28;5.85;;;;;;;;;;4987316;28;20202;-59
2022/06/30 01:24:27;;;;;;;6.10;5.53;;;;;;;;;;4989288;28;20210;-59
2022/06/30 01:26:57;;;;;;;6.30;5.80;;;;;;;;;;4989484;28;20202;-59
2022/06/30 01:29:24;;;;;;;6.20;5.60;;;;;;;;;;4989171;28;20654;-59
2022/06/30 01:31:51;;;;;;;7.07;5.82;;;;;;;;;;4988773;28;20217;-60
2022/06/30 01:34:18;;;;;;;6.75;6.10;;;;;;;;;;4988302;28;20248;-59
2022/06/30 01:36:45;;;;;;;6.38;5.78;;;;;;;;;;4988801;28;20220;-59
2022/06/30 01:39:13;;;;;;;6.85;6.22;;;;;;;;;;4986400;28;20205;-59
2022/06/30 01:41:40;;;;;;;7.03;6.32;;;;;;;;;;4986570;28;20221;-59
2022/06/30 01:44:07;;;;;;;6.93;6.30;;;;;;;;;;4987915;28;20717;-59
2022/06/30 01:46:35;;;;;;;6.57;5.97;;;;;;;;;;4987452;28;20252;-59
2022/06/30 01:49:02;;;;;;;7.75;6.50;;;;;;;;;;4984184;28;20660;-59
2022/06/30 01:51:29;;;;;;;8.55;6.57;;;;;;;;;;4987086;28;20206;-59
2022/06/30 01:53:56;;;;;;;6.97;6.38;;;;;;;;;;4987121;28;20230;-59
2022/06/30 01:56:24;;;;;;;7.07;6.38;;;;;;;;;;4986519;28;20229;-59
2022/06/30 01:58:51;;;;;;;7.63;6.10;;;;;;;;;;4983210;28;20217;-59
2022/06/30 02:01:18;;;;;;;6.75;6.20;;;;;;;;;;4984823;28;20680;-60
2022/06/30 02:03:45;;;;;;;6.20;5.70;;;;;;;;;;4986002;28;20257;-59
2022/06/30 02:06:12;;;;;;;6.07;5.57;;;;;;;;;;4986499;28;20224;-59
2022/06/30 02:08:40;;;;;;;6.45;5.82;;;;;;;;;;4986777;28;20456;-58
2022/06/30 02:11:07;;;;;;;7.05;6.45;;;;;;;;;;4986591;28;20204;-59
2022/06/30 02:13:35;;;;;;;7.15;6.47;;;;;;;;;;4987244;28;20702;-58
2022/06/30 02:16:02;;;;;;;7.68;6.97;;;;;;;;;;4986975;28;20198;-59
2022/06/30 02:18:29;;;;;;;8.60;6.40;;;;;;;;;;4987127;28;20233;-59
2022/06/30 02:20:57;;;;;;;6.75;6.15;;;;;;;;;;4987547;28;20213;-59
2022/06/30 02:23:24;;;;;;;7.53;6.45;;;;;;;;;;4987462;28;20672;-59
2022/06/30 02:25:51;;;;;;;6.82;6.22;;;;;;;;;;4987967;28;20222;-59
2022/06/30 02:28:18;;;;;;;6.75;6.10;;;;;;;;;;4987805;28;20279;-59
2022/06/30 02:30:47;;;;;;;8.05;6.45;;;;;;;;;;4988232;28;20664;-59
2022/06/30 02:33:15;;;;;;;7.90;6.43;;;;;;;;;;4987318;28;20564;-58
2022/06/30 02:35:42;;;;;;;8.95;6.75;;;;;;;;;;4993146;28;20273;-59
2022/06/30 02:38:10;;;;;;;7.18;6.47;;;;;;;;;;4988107;28;20209;-59
2022/06/30 02:40:37;;;;;;;6.72;5.95;;;;;;;;;;4987884;28;20202;-58
2022/06/30 02:43:04;;;;;;;6.43;5.93;;;;;;;;;;4987892;28;20644;-59
2022/06/30 02:45:31;;;;;;;7.15;6.10;;;;;;;;;;4991637;28;20276;-59
2022/06/30 02:48:00;;;;;;;6.68;6.05;;;;;;;;;;4991232;28;20256;-59
2022/06/30 02:50:27;;;;;;;6.72;6.13;;;;;;;;;;4991017;28;20201;-59
2022/06/30 02:52:54;;;;;;;8.68;6.38;;;;;;;;;;4991371;28;20248;-59
2022/06/30 02:55:21;;;;;;;7.47;6.78;;;;;;;;;;4991331;28;20268;-59
2022/06/30 02:57:48;;;;;;;7.68;6.95;;;;;;;;;;4991416;28;20258;-59
2022/06/30 03:00:15;;;;;;;9.75;7.07;;;;;;;;;;4991708;28;20265;-59
2022/06/30 03:02:43;;;;;;;8.50;6.57;;;;;;;;;;4991387;28;20206;-59
2022/06/30 03:05:12;;;;;;;6.97;6.40;;;;;;;;;;4991510;28;20675;-60
2022/06/30 03:07:39;;;;;;;7.60;6.90;;;;;;;;;;4991168;28;20221;-59
2022/06/30 03:10:06;;;;;;;6.72;6.07;;;;;;;;;;4981895;28;20652;-60
2022/06/30 03:12:33;;;;;;;6.60;6.10;;;;;;;;;;4991672;28;20260;-60
2022/06/30 03:15:01;;;;;;;6.78;6.00;;;;;;;;;;4991594;28;20206;-60
2022/06/30 03:17:28;;;;;;;7.03;6.43;;;;;;;;;;4991028;28;20213;-59
2022/06/30 03:19:55;;;;;;;6.97;6.38;;;;;;;;;;4991146;28;20672;-60
2022/06/30 03:22:23;;;;;;;6.88;6.28;;;;;;;;;;4990988;28;20206;-60
2022/06/30 03:24:50;;;;;;;7.63;6.45;;;;;;;;;;4991168;28;20738;-60
2022/06/30 03:27:18;;;;;;;7.07;6.50;;;;;;;;;;4988647;28;20275;-60
2022/06/30 03:29:46;;;;;;;7.40;6.75;;;;;;;;;;4992035;28;20216;-60
2022/06/30 03:32:13;;;;;;;7.47;6.78;;;;;;;;;;4990365;28;20224;-60
2022/06/30 03:34:40;;;;;;;7.40;6.53;;;;;;;;;;4990835;28;20209;-60
2022/06/30 03:37:07;;;;;;;6.90;6.30;;;;;;;;;;4990518;28;20202;-59
2022/06/30 03:39:35;;;;;;;6.88;6.28;;;;;;;;;;4991194;28;20205;-60
2022/06/30 03:42:02;;;;;;;6.88;6.30;;;;;;;;;;4990893;28;20232;-60
2022/06/30 03:44:29;;;;;;;7.45;6.70;;;;;;;;;;4990711;28;20209;-60
2022/06/30 03:46:57;;;;;;;6.28;5.78;;;;;;;;;;4990222;28;20252;-59
2022/06/30 03:49:24;;;;;;;7.55;6.85;;;;;;;;;;4989848;28;20296;-60
2022/06/30 03:51:51;;;;;;;6.97;6.28;;;;;;;;;;4990313;28;20205;-60
2022/06/30 03:54:19;;;;;;;7.35;6.65;;;;;;;;;;4990168;28;20320;-59
2022/06/30 03:56:47;;;;;;;7.00;6.32;;;;;;;;;;4987160;28;20240;-60
2022/06/30 03:59:14;;;;;;;8.13;6.75;;;;;;;;;;4990544;28;20291;-60
2022/06/30 04:01:41;;;;;;;7.45;6.88;;;;;;;;;;4992996;28;20295;-60
2022/06/30 04:04:08;;;;;;;10.07;6.10;;;;;;;;;;4990410;28;20209;-60
2022/06/30 04:06:35;;;;;;;7.57;6.03;;;;;;;;;;4989273;28;20289;-60
2022/06/30 04:09:02;;;;;;;8.60;6.13;;;;;;;;;;4990366;28;20210;-60
2022/06/30 04:11:29;;;;;;;6.50;5.82;;;;;;;;;;4990560;28;20257;-60
2022/06/30 04:13:58;;;;;;;8.38;5.65;;;;;;;;;;4990209;28;20202;-60
2022/06/30 04:16:25;;;;;;;6.50;5.90;;;;;;;;;;4990158;28;20249;-60
2022/06/30 04:18:52;;;;;;;8.48;6.32;;;;;;;;;;4988622;28;20711;-60
2022/06/30 04:21:19;;;;;;;6.93;6.32;;;;;;;;;;4990666;28;20218;-61
2022/06/30 04:23:46;;;;;;;7.00;6.40;;;;;;;;;;4990827;28;20228;-60
2022/06/30 04:26:13;;;;;;;6.47;5.97;;;;;;;;;;4990372;28;20228;-60
2022/06/30 04:28:40;;;;;;;6.70;6.05;;;;;;;;;;4990112;28;20276;-60
2022/06/30 04:33:53;;;;;;;7.82;6.95;;;;;;;;;;4986930;28;20313;-60
2022/06/30 04:36:20;;;;;;;7.22;6.63;;;;;;;;;;4990052;28;20213;-60
2022/06/30 04:38:47;;;;;;;7.28;6.57;;;;;;;;;;4979590;28;20622;-60
2022/06/30 04:41:25;;;;;;;6.82;6.25;;;;;;;;;;4990670;28;20217;-60
2022/06/30 04:43:52;;;;;;;6.35;5.85;;;;;;;;;;4989504;28;20283;-60
2022/06/30 04:46:20;;;;;;;6.55;5.95;;;;;;;;;;4988648;28;20703;-60
2022/06/30 04:48:47;;;;;;;6.97;6.38;;;;;;;;;;4988484;28;20209;-60
2022/06/30 04:51:14;;;;;;;7.13;6.60;;;;;;;;;;4989559;28;20205;-61
2022/06/30 04:53:41;;;;;;;7.78;6.78;;;;;;;;;;4988683;28;20202;-62
2022/06/30 04:56:08;;;;;;;7.40;6.80;;;;;;;;;;4989155;28;20253;-61
2022/06/30 04:58:36;;;;;;;8.48;6.78;;;;;;;;;;4988397;28;20265;-61
2022/06/30 05:01:03;;;;;;;6.68;6.18;;;;;;;;;;4985068;28;20421;-62
2022/06/30 05:03:31;;;;;;;7.25;6.53;;;;;;;;;;4988753;28;20216;-60
2022/06/30 05:05:58;;;;;;;6.93;6.32;;;;;;;;;;4988622;28;20292;-60
2022/06/30 05:08:26;;;;;;;7.90;7.20;;;;;;;;;;4989090;28;20211;-60
2022/06/30 05:10:53;;;;;;;7.22;6.65;;;;;;;;;;4988593;28;20225;-60
2022/06/30 05:13:20;;;;;;;7.80;7.00;;;;;;;;;;4988941;28;20213;-61
2022/06/30 05:15:47;;;;;;;8.07;6.75;;;;;;;;;;4980215;28;20211;-61
2022/06/30 05:18:14;;;;;;;8.00;7.22;;;;;;;;;;4994632;28;20621;-61
2022/06/30 05:20:43;;;;;;;8.55;7.15;;;;;;;;;;4989404;28;20205;-60
2022/06/30 05:23:10;;;;;;;8.25;6.70;;;;;;;;;;4988540;28;20213;-60
2022/06/30 05:28:22;;;;;;;7.53;6.82;;;;;;;;;;4993908;28;20213;-62
2022/06/30 05:30:49;;;;;;;8.27;7.47;;;;;;;;;;4988595;28;20553;-61
2022/06/30 05:33:19;;;;;;;8.18;7.38;;;;;;;;;;4988561;28;20217;-60
2022/06/30 05:35:48;;;;;;;8.30;6.50;;;;;;;;;;4989026;28;20210;-58
2022/06/30 05:38:15;;;;;;;8.40;7.53;;;;;;;;;;4989403;28;20751;-59
2022/06/30 05:40:45;;;;;;;7.78;7.05;;;;;;;;;;4990703;28;20308;-59
2022/06/30 05:43:13;;;;;;;8.18;7.38;;;;;;;;;;4988906;28;20221;-59
2022/06/30 05:45:41;;;;;;;7.93;7.22;;;;;;;;;;4988886;28;20434;-59
2022/06/30 05:48:08;;;;;;;8.35;7.55;;;;;;;;;;4987924;28;20799;-59
2022/06/30 05:50:35;;;;;;;8.10;7.22;;;;;;;;;;4988737;28;20214;-60
2022/06/30 05:53:03;;;;;;;8.65;7.75;;;;;;;;;;4988264;28;20233;-60
2022/06/30 05:55:30;;;;;;;8.48;7.45;;;;;;;;;;4988583;28;20233;-59
2022/06/30 05:57:58;;;;;;;9.00;7.55;;;;;;;;;;4987347;28;20216;-63
2022/06/30 06:00:27;;;;;;;8.00;7.30;;;;;;;;;;4988661;28;20623;-62
2022/06/30 06:02:54;;;;;;;7.00;6.45;;;;;;;;;;4988682;28;20525;-62
2022/06/30 06:05:21;;;;;;;7.10;6.50;;;;;;;;;;4988470;28;20228;-62
2022/06/30 06:07:49;;;;;;;8.32;7.28;;;;;;;;;;4988588;28;20229;-62
2022/06/30 06:10:17;;;;;;;7.10;6.43;;;;;;;;;;4989044;28;20672;-62
2022/06/30 06:12:44;;;;;;;7.35;6.75;;;;;;;;;;4989013;28;20213;-62
2022/06/30 06:15:12;;;;;;;7.50;6.80;;;;;;;;;;4988781;28;20205;-62
2022/06/30 06:17:42;;;;;;;7.43;6.53;;;;;;;;;;4988550;28;20209;-61
2022/06/30 06:20:10;;;;;;;6.97;6.47;;;;;;;;;;4991682;28;20883;-62
2022/06/30 06:22:37;;;;;;;7.43;6.68;;;;;;;;;;4992596;28;20296;-62
2022/06/30 06:25:05;;;;;;;7.38;6.78;;;;;;;;;;4991540;28;20209;-62
2022/06/30 06:27:33;;;;;;;7.00;6.40;;;;;;;;;;4992570;28;20229;-62
2022/06/30 06:30:00;;;;;;;7.55;6.85;;;;;;;;;;4992417;28;20206;-62
2022/06/30 06:32:27;;;;;;;7.57;6.68;;;;;;;;;;4992056;28;20256;-62
2022/06/30 06:34:55;;;;;;;7.38;6.68;;;;;;;;;;4991984;28;20236;-61
2022/06/30 06:37:22;;;;;;;7.22;6.63;;;;;;;;;;4992316;28;20226;-62
2022/06/30 06:39:49;;;;;;;6.97;6.47;;;;;;;;;;4992646;28;20272;-61
2022/06/30 06:42:16;;;;;;;7.47;6.78;;;;;;;;;;4992376;28;20256;-61
2022/06/30 06:44:44;;;;;;;7.13;6.55;;;;;;;;;;4992228;28;20217;-61
2022/06/30 06:47:11;;;;;;;11.60;8.25;;;;;;;;;;4991977;28;20225;-60
2022/06/30 06:49:39;;;;;;;7.75;7.07;;;;;;;;;;4991791;28;20209;-59
2022/06/30 06:52:06;;;;;;;9.25;8.35;;;;;;;;;;4992042;28;20206;-60
2022/06/30 06:54:33;;;;;;;9.40;7.93;;;;;;;;;;4991856;28;20798;-61
2022/06/30 06:57:00;;;;;;;8.20;7.50;;;;;;;;;;4991347;28;20651;-60
2022/06/30 06:59:47;;;;;;;9.95;7.75;;;;;;;;;;4992270;28;20267;-60
2022/06/30 07:02:16;;;;;;;10.65;7.28;;;;;;;;;;4989836;28;20324;-60
2022/06/30 07:04:43;;;;;;;8.18;7.50;;;;;;;;;;4990948;28;21042;-60
2022/06/30 07:07:10;;;;;;;7.13;6.63;;;;;;;;;;4991602;28;20238;-59
2022/06/30 07:09:37;;;;;;;8.50;7.70;;;;;;;;;;4991362;28;20213;-63
2022/06/30 07:12:04;;;;;;;7.60;6.80;;;;;;;;;;4991393;28;20209;-60
2022/06/30 07:14:31;;;;;;;7.70;7.07;;;;;;;;;;4991546;28;20288;-60
2022/06/30 07:16:58;;;;;;;7.65;6.95;;;;;;;;;;4991492;28;20613;-61
2022/06/30 07:19:26;;;;;;;7.90;7.28;;;;;;;;;;4991307;28;20214;-60
2022/06/30 07:21:53;;;;;;;7.65;7.05;;;;;;;;;;4991154;28;20218;-59
2022/06/30 07:24:20;;;;;;;7.43;6.82;;;;;;;;;;4989137;28;20202;-59
2022/06/30 07:26:47;;;;;;;10.70;6.90;;;;;;;;;;4989365;28;20226;-59
2022/06/30 07:29:16;;;;;;;8.27;7.47;;;;;;;;;;4991314;28;20206;-58
2022/06/30 07:31:43;;;;;;;7.70;7.00;;;;;;;;;;4990436;28;20213;-58
2022/06/30 07:34:10;;;;;;;8.43;7.72;;;;;;;;;;4991151;28;20859;-63
2022/06/30 07:36:40;;;;;;;9.82;7.85;;;;;;;;;;4989800;28;20743;-60
2022/06/30 07:39:07;;;;;;;8.52;7.65;;;;;;;;;;4989617;28;20218;-60
2022/06/30 07:41:34;;;;;;;8.45;7.63;;;;;;;;;;4990731;28;20245;-61
2022/06/30 07:44:02;;;;;;;8.45;7.38;;;;;;;;;;4991150;28;20804;-60
2022/06/30 07:46:29;;;;;;;7.35;6.72;;;;;;;;;;4991447;28;20300;-59
2022/06/30 07:48:56;;;;;;;8.10;7.38;;;;;;;;;;4990918;28;20217;-61
2022/06/30 07:51:23;;;;;;;12.88;7.28;;;;;;;;;;4991036;28;20209;-60
2022/06/30 07:53:52;;;;;;;8.40;6.95;;;;;;;;;;4991231;28;20625;-61
2022/06/30 07:56:20;;;;;;;6.65;6.05;;;;;;;;;;4991182;28;20727;-66
2022/06/30 07:58:48;;;;;;;7.18;6.68;;;;;;;;;;4990784;28;20208;-61
2022/06/30 08:01:16;;;;;;;6.70;6.20;;;;;;;;;;4989658;28;20305;-61
2022/06/30 08:03:43;;;;;;;7.05;6.45;;;;;;;;;;4990728;28;20212;-60
2022/06/30 08:06:10;;;;;;;7.05;6.28;;;;;;;;;;4990265;28;20213;-60
2022/06/30 08:08:37;;;;;;;7.65;7.00;;;;;;;;;;4990843;28;20233;-61
2022/06/30 08:11:06;;;;;;;7.63;6.63;;;;;;;;;;4990901;28;20262;-65
2022/06/30 08:13:33;;;;;;;9.13;7.45;;;;;;;;;;4991199;28;20217;-61
2022/06/30 08:16:00;;;;;;;6.55;6.10;;;;;;;;;;4990947;28;20284;-61
2022/06/30 08:18:27;;;;;;;7.78;7.05;;;;;;;;;;4990871;28;20286;-60
2022/06/30 08:20:54;;;;;;;7.82;7.13;;;;;;;;;;4990498;28;20957;-59
2022/06/30 08:23:21;;;;;;;7.85;7.28;;;;;;;;;;4990782;28;20214;-59
2022/06/30 08:25:48;;;;;;;6.93;6.32;;;;;;;;;;4990691;28;20209;-59
2022/06/30 08:28:16;;;;;;;8.70;7.28;;;;;;;;;;4990992;28;20237;-59
2022/06/30 08:30:44;;;;;;;11.65;7.70;;;;;;;;;;4990521;28;20212;-61
2022/06/30 08:33:12;;;;;;;7.57;6.78;;;;;;;;;;4982215;28;20290;-60
2022/06/30 08:35:39;;;;;;;8.05;7.28;;;;;;;;;;4990236;28;20435;-60
2022/06/30 08:38:06;;;;;;;7.40;6.78;;;;;;;;;;4990289;28;20723;-61
2022/06/30 08:43:20;;;;;;;8.30;7.60;;;;;;;;;;4990460;28;20204;-60
2022/06/30 08:45:47;;;;;;;7.07;6.47;;;;;;;;;;4989916;28;20213;-60
2022/06/30 08:48:14;;;;;;;7.32;6.63;;;;;;;;;;4990162;28;20704;-60
2022/06/30 08:50:42;;;;;;;7.45;6.70;;;;;;;;;;4989666;28;20202;-60
2022/06/30 08:53:10;;;;;;;7.32;6.68;;;;;;;;;;4989890;28;20212;-59
2022/06/30 08:55:38;;;;;;;7.35;6.75;;;;;;;;;;4989888;28;20324;-58
2022/06/30 08:58:06;;;;;;;7.68;6.07;;;;;;;;;;4989584;28;20217;-61
2022/06/30 09:00:35;;;;;;;7.00;5.85;;;;;;;;;;4989764;28;20279;-60
2022/06/30 09:03:03;;;;;;;5.78;5.43;;;;;;;;;;4989584;28;20279;-61
2022/06/30 09:05:30;;;;;;;7.20;6.53;;;;;;;;;;4990016;28;20263;-62
2022/06/30 09:07:57;;;;;;;6.25;5.65;;;;;;;;;;4989519;28;20237;-60
2022/06/30 09:10:25;;;;;;;6.68;5.47;;;;;;;;;;4989824;28;20214;-59
2022/06/30 09:12:58;;;;;;;5.10;4.90;;;;;;;;;;4989383;28;20229;-60
2022/06/30 09:15:25;;;;;;;5.68;5.32;;;;;;;;;;4970393;28;20217;-61
2022/06/30 09:17:54;;;;;;;6.60;5.70;;;;;;;;;;4970308;28;20668;-61
2022/06/30 09:20:32;;;;;;;5.85;5.45;;;;;;;;;;4989177;28;20213;-60
2022/06/30 09:23:00;;;;;;;5.03;4.82;;;;;;;;;;4989591;28;20698;-61
2022/06/30 09:25:31;;;;;;;5.53;4.90;;;;;;;;;;4975802;28;20292;-63
2022/06/30 09:27:58;;;;;;;5.75;5.32;;;;;;;;;;4989536;28;20229;-60
2022/06/30 09:30:26;;;;;;;4.35;4.10;;;;;;;;;;4989149;28;20213;-61
2022/06/30 09:32:55;;;;;;;5.22;4.85;;;;;;;;;;4989331;28;20299;-63
2022/06/30 09:35:23;;;;;;;5.60;5.15;;;;;;;;;;4989052;28;20715;-61
2022/06/30 09:38:00;;;;;;;5.50;4.95;;;;;;;;;;4989436;28;20593;-61
2022/06/30 09:40:31;;;;;;;5.55;5.20;;;;;;;;;;4989061;28;20675;-61
2022/06/30 09:42:58;;;;;;;5.35;4.95;;;;;;;;;;4989497;28;20216;-61
2022/06/30 09:45:37;;;;;;;4.35;4.13;;;;;;;;;;4989129;28;20694;-62
2022/06/30 09:48:06;;;;;;;4.78;4.47;;;;;;;;;;4989475;28;20236;-61
2022/06/30 09:50:33;;;;;;;4.13;3.83;;;;;;;;;;4989039;28;20671;-62
2022/06/30 09:53:08;;;;;;;4.40;4.20;;;;;;;;;;4989012;28;20707;-61
2022/06/30 09:55:39;;;;;;;4.40;4.00;;;;;;;;;;4988676;28;20244;-61
2022/06/30 09:58:06;;;;;;;4.38;4.05;;;;;;;;;;4988974;28;20645;-61
2022/06/30 10:00:43;;;;;;;3.55;3.42;;;;;;;;;;4989019;28;20754;-61
2022/06/30 10:03:11;;;;;;;3.95;3.65;;;;;;;;;;4969718;28;20442;-62
2022/06/30 10:05:43;;;;;;;3.67;3.42;;;;;;;;;;4982784;28;20213;-62
2022/06/30 10:08:10;;;;;;;3.55;3.35;;;;;;;;;;4988157;28;20331;-62
2022/06/30 10:10:37;;;;;;;3.67;3.58;;;;;;;;;;4995817;28;20209;-62
2022/06/30 10:13:06;;;;;;;3.30;3.20;;;;;;;;;;4989912;28;20217;-64
2022/06/30 10:15:35;;;;;;;3.85;3.53;;;;;;;;;;4996371;28;20196;-60
2022/06/30 10:18:03;;;;;;;3.92;3.53;;;;;;;;;;4983760;28;20272;-61
2022/06/30 10:20:37;;;;;;;3.63;3.53;;;;;;;;;;4986469;28;20212;-61
2022/06/30 10:23:05;;;;;;;3.50;3.30;;;;;;;;;;4987494;28;20208;-60
2022/06/30 10:25:32;;;;;;;3.38;3.28;;;;;;;;;;4988713;28;20228;-58
2022/06/30 10:28:00;;;;;;;4.10;3.97;;;;;;;;;;4985555;28;20237;-58
2022/06/30 10:30:28;;;;;;;3.70;3.50;;;;;;;;;;4986608;28;20213;-59
2022/06/30 10:33:00;;;;;;;4.07;3.72;;;;;;;;;;4988251;28;20642;-59
2022/06/30 10:35:30;;;;;;;5.35;3.90;;;;;;;;;;4987704;28;20209;-59
2022/06/30 10:38:01;;;;;;;4.05;3.85;;;;;;;;;;4988209;28;20209;-59
2022/06/30 10:40:37;;;;;;;3.88;3.67;;;;;;;;;;4988178;28;20209;-59
2022/06/30 10:43:04;;;;;;;4.05;3.80;;;;;;;;;;4987775;28;20243;-59
2022/06/30 10:45:54;;;;;;;3.95;3.58;;;;;;;;;;4988903;28;20220;-58
2022/06/30 10:48:22;;;;;;;3.97;3.70;;;;;;;;;;4988147;28;20897;-59
2022/06/30 10:50:51;;;;;;;4.15;3.90;;;;;;;;;;4988699;28;20303;-59
2022/06/30 10:53:37;;;;;;;3.80;3.60;;;;;;;;;;4987864;28;20211;-59
2022/06/30 10:56:04;;;;;;;3.55;3.30;;;;;;;;;;4989181;28;20801;-59
2022/06/30 10:58:31;;;;;;;4.20;3.60;;;;;;;;;;4987862;28;20564;-60
2022/06/30 11:00:59;;;;;;;3.70;3.45;;;;;;;;;;4988082;28;20205;-60
2022/06/30 11:03:59;;;;;;;4.15;3.28;;;;;;;;;;4990282;28;20209;-60
2022/06/30 11:06:41;;;;;;;4.38;3.25;;;;;;;;;;4991121;28;20229;-60
2022/06/30 11:09:10;;;;;;;4.22;3.85;;;;;;;;;;4991290;28;20231;-60
2022/06/30 11:11:43;;;;;;;5.60;3.35;;;;;;;;;;4991915;28;20264;-60
2022/06/30 11:14:26;;;;;;;3.90;3.70;;;;;;;;;;4990141;28;20300;-60
2022/06/30 11:16:53;;;;;;;3.78;3.55;;;;;;;;;;4991995;28;20777;-60
2022/06/30 11:19:54;;;;;;;3.55;3.45;;;;;;;;;;4990923;28;20741;-60
2022/06/30 11:22:21;;;;;;;4.30;4.00;;;;;;;;;;4988468;28;20201;-60
2022/06/30 11:24:50;;;;;;;3.88;3.60;;;;;;;;;;4990270;28;20213;-60
2022/06/30 11:27:22;;;;;;;3.42;3.33;;;;;;;;;;4990524;28;20240;-62
2022/06/30 11:29:49;;;;;;;3.60;3.40;;;;;;;;;;4989469;28;20232;-61
2022/06/30 11:32:16;;;;;;;3.63;3.42;;;;;;;;;;4989857;28;20209;-60
2022/06/30 11:34:43;;;;;;;3.72;3.45;;;;;;;;;;4989281;28;20277;-60
2022/06/30 11:37:11;;;;;;;4.15;3.85;;;;;;;;;;4989302;28;20216;-60
2022/06/30 11:39:38;;;;;;;3.70;3.60;;;;;;;;;;4989304;28;20209;-60
2022/06/30 11:42:08;;;;;;;3.67;3.58;;;;;;;;;;4989845;28;20213;-61
2022/06/30 11:44:38;;;;;;;3.78;3.47;;;;;;;;;;4989719;28;20236;-60
2022/06/30 11:47:06;;;;;;;4.25;3.95;;;;;;;;;;4989739;28;20208;-61
2022/06/30 11:49:40;;;;;;;4.18;3.97;;;;;;;;;;4988327;28;20275;-61
2022/06/30 11:52:10;;;;;;;3.63;3.40;;;;;;;;;;4982372;28;20341;-61
2022/06/30 11:54:38;;;;;;;4.82;3.60;;;;;;;;;;4989653;28;20247;-61
2022/06/30 11:57:05;;;;;;;4.05;3.83;;;;;;;;;;4988998;28;20249;-61
2022/06/30 11:59:34;;;;;;;3.38;3.28;;;;;;;;;;4989490;28;20569;-61
2022/06/30 12:02:02;;;;;;;3.47;3.38;;;;;;;;;;4988956;28;20284;-61
2022/06/30 12:04:29;;;;;;;3.67;3.47;;;;;;;;;;4988808;28;20209;-61
2022/06/30 12:06:56;;;;;;;3.60;3.50;;;;;;;;;;4989286;28;20648;-60
2022/06/30 12:09:23;;;;;;;3.42;3.30;;;;;;;;;;4987942;28;20221;-60
2022/06/30 12:11:52;;;;;;;3.58;3.30;;;;;;;;;;4986690;28;20209;-63
2022/06/30 12:14:19;;;;;;;3.55;3.35;;;;;;;;;;4989569;28;20209;-62
2022/06/30 12:16:48;;;;;;;3.50;3.30;;;;;;;;;;4988432;28;20212;-60
2022/06/30 12:19:15;;;;;;;3.15;3.05;;;;;;;;;;4985250;28;20217;-61
2022/06/30 12:21:42;;;;;;;3.90;3.28;;;;;;;;;;4989019;28;20625;-60
2022/06/30 12:24:10;;;;;;;3.22;3.03;;;;;;;;;;4989068;28;20591;-61
2022/06/30 12:26:37;;;;;;;3.45;3.22;;;;;;;;;;4989170;28;20300;-61
2022/06/30 12:29:12;;;;;;;2.92;2.80;;;;;;;;;;4988298;28;20662;-60
2022/06/30 12:31:39;;;;;;;3.33;3.03;;;;;;;;;;4988930;28;20217;-60
2022/06/30 12:34:07;;;;;;;3.00;2.90;;;;;;;;;;4988414;28;20309;-61
2022/06/30 12:36:36;;;;;;;2.63;2.53;;;;;;;;;;4988588;28;20208;-61
2022/06/30 12:39:14;;;;;;;3.38;3.25;;;;;;;;;;4988654;28;20583;-61
2022/06/30 12:41:41;;;;;;;2.55;2.35;;;;;;;;;;4988458;28;20211;-60
2022/06/30 12:44:10;;;;;;;3.05;2.92;;;;;;;;;;4988599;28;20213;-60
2022/06/30 12:46:41;;;;;;;2.92;2.60;;;;;;;;;;4988213;28;20288;-61
2022/06/30 12:49:20;;;;;;;2.85;2.75;;;;;;;;;;4991393;28;20223;-61
2022/06/30 12:51:47;;;;;;;2.45;2.45;;;;;;;;;;4988182;28;20205;-61
2022/06/30 12:54:16;;;;;;;2.75;2.70;;;;;;;;;;4986579;28;20279;-61
2022/06/30 12:56:50;;;;;;;2.72;2.60;;;;;;;;;;4987146;28;20770;-60
2022/06/30 12:59:17;;;;;;;2.47;2.38;;;;;;;;;;4988844;28;20201;-61
2022/06/30 13:01:45;;;;;;;2.40;2.30;;;;;;;;;;4988538;28;20300;-61
2022/06/30 13:04:19;;;;;;;2.05;2.05;;;;;;;;;;4988411;28;20216;-60
2022/06/30 13:06:47;;;;;;;2.15;2.15;;;;;;;;;;4988212;28;20690;-60
2022/06/30 13:09:14;;;;;;;2.55;2.45;;;;;;;;;;4988639;28;20782;-60
2022/06/30 13:11:45;;;;;;;2.38;2.00;;;;;;;;;;4987710;28;20201;-60
2022/06/30 13:14:12;;;;;;;1.52;1.52;;;;;;;;;;4987495;28;20240;-61
2022/06/30 13:16:39;;;;;;;1.85;1.70;;;;;;;;;;4987865;28;20213;-60
2022/06/30 13:19:07;;;;;;;1.92;1.92;;;;;;;;;;4987429;28;20213;-61
2022/06/30 13:21:36;;;;;;;1.95;1.80;;;;;;;;;;4987830;28;20307;-62
2022/06/30 13:24:03;;;;;;;3.35;1.80;;;;;;;;;;4986338;28;20232;-63
2022/06/30 13:26:30;;;;;;;1.73;1.73;;;;;;;;;;4987733;28;20331;-63
2022/06/30 13:28:57;;;;;;;1.77;1.77;;;;;;;;;;4985993;28;20773;-62
2022/06/30 13:31:26;;;;;;;1.70;1.70;;;;;;;;;;4985533;28;20209;-60
2022/06/30 13:33:53;;;;;;;1.35;1.35;;;;;;;;;;4986265;28;20282;-61
2022/06/30 13:36:21;;;;;;;1.73;1.73;;;;;;;;;;4986549;28;20209;-61
2022/06/30 13:38:49;;;;;;;1.92;1.77;;;;;;;;;;4987776;28;20224;-60
2022/06/30 13:41:19;;;;;;;1.88;1.77;;;;;;;;;;4988025;28;20208;-61
2022/06/30 13:43:46;;;;;;;1.80;1.80;;;;;;;;;;4987402;28;20205;-62
2022/06/30 13:46:13;;;;;;;1.98;1.60;;;;;;;;;;4987437;28;20308;-59
2022/06/30 13:48:40;;;;;;;1.75;1.75;;;;;;;;;;4987542;28;20212;-59
2022/06/30 13:51:07;;;;;;;1.85;1.70;;;;;;;;;;4985335;28;20201;-59
2022/06/30 13:53:34;;;;;;;3.42;1.67;;;;;;;;;;4986711;28;20593;-60
2022/06/30 13:56:03;;;;;;;1.70;1.60;;;;;;;;;;4986936;28;20252;-60
2022/06/30 13:58:30;;;;;;;1.80;1.70;;;;;;;;;;4987552;28;20213;-60
2022/06/30 14:00:57;;;;;;;1.58;1.58;;;;;;;;;;4975748;28;20217;-60
2022/06/30 14:03:24;;;;;;;1.70;1.70;;;;;;;;;;4987585;28;20220;-60
2022/06/30 14:05:52;;;;;;;1.50;1.30;;;;;;;;;;4986790;28;20204;-61
2022/06/30 14:08:20;;;;;;;1.98;1.88;;;;;;;;;;4987052;28;20208;-61
2022/06/30 14:10:47;;;;;;;1.60;1.60;;;;;;;;;;4986532;28;20236;-61
2022/06/30 14:13:16;;;;;;;1.35;1.35;;;;;;;;;;4987456;28;20217;-61
2022/06/30 14:15:50;;;;;;;1.77;1.70;;;;;;;;;;4987010;28;20213;-61
2022/06/30 14:18:17;;;;;;;1.58;1.58;;;;;;;;;;4987107;28;20219;-61
2022/06/30 14:20:45;;;;;;;2.05;1.98;;;;;;;;;;4986905;28;20216;-62
2022/06/30 14:23:12;;;;;;;1.55;1.55;;;;;;;;;;4987488;28;20213;-61
2022/06/30 14:25:39;;;;;;;2.42;1.80;;;;;;;;;;4986747;28;20215;-62
2022/06/30 14:28:07;;;;;;;1.70;1.70;;;;;;;;;;4987061;28;20209;-61
2022/06/30 14:30:35;;;;;;;1.75;1.65;;;;;;;;;;4986592;28;20232;-61
2022/06/30 14:33:03;;;;;;;1.70;1.70;;;;;;;;;;4987247;28;20308;-61
2022/06/30 14:35:30;;;;;;;1.60;1.50;;;;;;;;;;4987129;28;20632;-61
2022/06/30 14:37:57;;;;;;;1.60;1.60;;;;;;;;;;4986366;28;20205;-61
2022/06/30 14:40:24;;;;;;;1.80;1.80;;;;;;;;;;4988073;28;20665;-61
2022/06/30 14:42:53;;;;;;;2.05;2.05;;;;;;;;;;4990904;28;20209;-61
2022/06/30 14:45:21;;;;;;;1.95;1.95;;;;;;;;;;4990710;28;20209;-62
2022/06/30 14:47:50;;;;;;;1.70;1.70;;;;;;;;;;4990536;28;20220;-62
2022/06/30 14:50:18;;;;;;;1.73;1.73;;;;;;;;;;4990544;28;20320;-62
2022/06/30 14:52:46;;;;;;;1.60;1.60;;;;;;;;;;4990661;28;20209;-62
2022/06/30 14:55:14;;;;;;;1.60;1.60;;;;;;;;;;4990237;28;20228;-63
2022/06/30 14:57:43;;;;;;;1.55;1.55;;;;;;;;;;4990455;28;20875;-62
2022/06/30 15:00:11;;;;;;;1.85;1.75;;;;;;;;;;4990189;28;20211;-63